createdAt,value
2023-03-16T00:02:02.165Z,10.35
2023-03-16T00:04:47.630Z,9.70
2023-03-16T00:07:34.388Z,10.68
2023-03-16T00:10:22.548Z,7.78
2023-03-16T00:13:07.818Z,7.63
2023-03-16T00:16:01.222Z,9.68
2023-03-16T00:18:46.905Z,10.27
2023-03-16T00:21:32.411Z,7.20
2023-03-16T00:24:19.490Z,6.00
2023-03-16T00:27:04.857Z,8.40
2023-03-16T00:30:00.165Z,6.60
2023-03-16T00:32:45.954Z,6.47
2023-03-16T00:35:34.584Z,7.20
2023-03-16T00:38:21.740Z,8.43
2023-03-16T00:41:09.221Z,10.63
2023-03-16T00:43:54.883Z,11.48
2023-03-16T00:46:40.159Z,10.77
2023-03-16T00:49:25.789Z,8.30
2023-03-16T00:52:16.304Z,10.80
2023-03-16T00:55:03.801Z,7.55
2023-03-16T00:57:49.414Z,10.32
2023-03-16T01:00:34.695Z,7.03
2023-03-16T01:03:21.748Z,9.20
2023-03-16T01:06:12.621Z,8.55
2023-03-16T01:08:58.155Z,8.02
2023-03-16T01:11:43.292Z,11.52
2023-03-16T01:14:29.457Z,13.05
2023-03-16T01:17:17.322Z,10.75
2023-03-16T01:20:08.470Z,10.48
2023-03-16T01:22:53.813Z,15.27
2023-03-16T01:25:39.071Z,9.25
2023-03-16T01:28:27.695Z,9.38
2023-03-16T01:31:17.148Z,9.18
2023-03-16T01:34:04.208Z,13.73
2023-03-16T01:36:51.700Z,7.60
2023-03-16T01:39:45.395Z,12.77
2023-03-16T01:43:04.518Z,10.25
2023-03-16T01:46:06.004Z,10.43
2023-03-16T01:49:24.052Z,11.25
2023-03-16T01:52:18.176Z,7.63
2023-03-16T01:55:09.079Z,10.25
2023-03-16T01:57:55.710Z,11.23
2023-03-16T02:00:47.802Z,15.68
2023-03-16T02:03:40.314Z,13.90
2023-03-16T02:06:35.676Z,9.85
2023-03-16T02:09:25.070Z,7.78
2023-03-16T02:12:18.100Z,10.00
2023-03-16T02:15:09.310Z,13.02
2023-03-16T02:17:57.739Z,10.18
2023-03-16T02:21:03.901Z,8.30
2023-03-16T02:23:51.566Z,11.27
2023-03-16T02:26:47.522Z,10.45
2023-03-16T02:29:55.954Z,11.00
2023-03-16T02:32:46.033Z,16.05
2023-03-16T02:35:32.228Z,12.63
2023-03-16T02:38:17.656Z,8.00
2023-03-16T02:41:15.118Z,12.27
2023-03-16T02:44:40.542Z,10.90
2023-03-16T02:47:47.312Z,10.80
2023-03-16T02:50:33.419Z,16.50
2023-03-16T02:53:19.681Z,12.98
2023-03-16T02:56:14.506Z,8.25
2023-03-16T02:59:00.287Z,15.93
2023-03-16T03:01:48.324Z,9.20
2023-03-16T03:04:35.032Z,9.40
2023-03-16T03:07:21.360Z,10.90
2023-03-16T03:10:17.492Z,9.93
2023-03-16T03:13:03.068Z,16.92
2023-03-16T03:15:48.949Z,12.57
2023-03-16T03:18:34.840Z,9.18
2023-03-16T03:21:25.857Z,11.73
2023-03-16T03:24:11.428Z,11.98
2023-03-16T03:26:56.980Z,10.63
2023-03-16T03:29:44.920Z,8.55
2023-03-16T03:32:30.412Z,16.48
2023-03-16T03:35:16.097Z,8.85
2023-03-16T03:38:01.478Z,10.07
2023-03-16T03:40:52.412Z,7.32
2023-03-16T03:43:38.048Z,10.80
2023-03-16T03:46:24.548Z,11.77
2023-03-16T03:49:09.934Z,11.32
2023-03-16T03:51:56.735Z,10.45
2023-03-16T03:54:44.580Z,10.07
2023-03-16T03:57:35.263Z,11.30
2023-03-16T04:00:21.899Z,13.60
2023-03-16T04:03:10.620Z,12.10
2023-03-16T04:06:02.478Z,11.30
2023-03-16T04:08:49.399Z,13.60
2023-03-16T04:11:38.806Z,11.48
2023-03-16T04:14:24.663Z,11.05
2023-03-16T04:17:10.022Z,12.60
2023-03-16T04:20:01.972Z,6.93
2023-03-16T04:22:58.303Z,11.20
2023-03-16T04:25:45.288Z,6.18
2023-03-16T04:28:35.629Z,10.60
2023-03-16T04:31:21.297Z,9.05
2023-03-16T04:34:06.870Z,11.35
2023-03-16T04:36:56.051Z,11.98
2023-03-16T04:39:42.195Z,14.57
2023-03-16T04:42:28.265Z,10.48
2023-03-16T04:45:14.663Z,12.32
2023-03-16T04:48:00.430Z,15.55
2023-03-16T04:50:47.573Z,10.70
2023-03-16T04:53:34.726Z,16.08
2023-03-16T04:56:28.195Z,12.38
2023-03-16T04:59:21.230Z,9.77
2023-03-16T05:02:17.690Z,8.30
2023-03-16T05:05:04.536Z,9.60
2023-03-16T05:07:50.089Z,8.52
2023-03-16T05:10:36.771Z,9.88
2023-03-16T05:13:23.864Z,13.23
2023-03-16T05:16:10.825Z,6.70
2023-03-16T05:19:00.270Z,8.73
2023-03-16T05:21:49.329Z,11.73
2023-03-16T05:24:37.187Z,11.20
2023-03-16T05:27:22.699Z,9.02
2023-03-16T05:30:10.890Z,8.65
2023-03-16T05:32:58.070Z,11.20
2023-03-16T05:35:44.997Z,10.13
2023-03-16T05:38:36.898Z,11.10
2023-03-16T05:41:23.972Z,8.90
2023-03-16T05:44:16.661Z,8.23
2023-03-16T05:47:31.451Z,8.52
2023-03-16T05:50:17.621Z,9.95
2023-03-16T05:53:04.312Z,12.35
2023-03-16T05:55:53.681Z,11.25
2023-03-16T05:58:39.268Z,11.68
2023-03-16T06:01:27.080Z,8.10
2023-03-16T06:04:12.798Z,10.77
2023-03-16T06:07:00.382Z,7.97
2023-03-16T06:09:48.177Z,9.80
2023-03-16T06:12:35.138Z,10.88
2023-03-16T06:15:20.755Z,12.63
2023-03-16T06:18:06.976Z,11.43
2023-03-16T06:20:53.146Z,13.35
2023-03-16T06:23:39.781Z,9.07
2023-03-16T06:26:27.723Z,8.98
2023-03-16T06:29:13.794Z,14.75
2023-03-16T06:32:00.458Z,12.25
2023-03-16T06:34:46.888Z,11.07
2023-03-16T06:37:32.840Z,11.98
2023-03-16T06:40:22.158Z,10.55
2023-03-16T06:43:08.764Z,10.32
2023-03-16T06:45:58.979Z,12.30
2023-03-16T06:48:47.338Z,9.43
2023-03-16T06:51:34.312Z,10.52
2023-03-16T06:54:19.822Z,9.68
2023-03-16T06:57:05.720Z,9.93
2023-03-16T06:59:51.233Z,10.52
2023-03-16T07:02:43.790Z,7.75
2023-03-16T07:05:30.589Z,10.75
2023-03-16T07:08:17.410Z,5.13
2023-03-16T07:11:02.919Z,12.70
2023-03-16T07:13:54.313Z,10.52
2023-03-16T07:16:41.201Z,10.18
2023-03-16T07:19:29.636Z,10.57
2023-03-16T07:22:19.046Z,7.63
2023-03-16T07:25:05.305Z,13.45
2023-03-16T07:27:52.336Z,10.20
2023-03-16T07:31:00.279Z,8.77
2023-03-16T07:33:50.833Z,11.02
2023-03-16T07:36:48.842Z,9.93
2023-03-16T07:39:36.118Z,5.28
2023-03-16T07:42:35.458Z,7.82
2023-03-16T07:45:30.866Z,8.75
2023-03-16T07:48:16.988Z,7.97
2023-03-16T07:51:09.224Z,8.65
2023-03-16T07:53:57.215Z,9.30
2023-03-16T07:56:49.749Z,8.02
2023-03-16T07:59:50.342Z,15.30
2023-03-16T08:02:39.099Z,7.15
2023-03-16T08:05:27.784Z,8.73
2023-03-16T08:08:18.042Z,9.93
2023-03-16T08:11:04.175Z,9.35
2023-03-16T08:14:00.833Z,11.32
2023-03-16T08:17:09.654Z,12.48
2023-03-16T08:19:55.019Z,10.57
2023-03-16T08:22:46.920Z,10.77
2023-03-16T08:25:37.821Z,8.07
2023-03-16T08:28:28.873Z,6.97
2023-03-16T08:31:15.993Z,6.25
2023-03-16T08:34:05.182Z,8.43
2023-03-16T08:36:57.597Z,7.60
2023-03-16T08:39:44.444Z,10.10
2023-03-16T08:42:33.751Z,5.63
2023-03-16T08:45:23.551Z,7.45
2023-03-16T08:48:13.209Z,10.05
2023-03-16T08:51:05.801Z,6.65
2023-03-16T08:53:51.864Z,8.52
2023-03-16T08:56:41.447Z,7.90
2023-03-16T08:59:30.232Z,8.13
2023-03-16T09:02:15.947Z,10.18
2023-03-16T09:05:03.897Z,7.93
2023-03-16T09:07:49.430Z,12.10
2023-03-16T09:10:36.039Z,8.95
2023-03-16T09:13:21.722Z,5.75
2023-03-16T09:16:12.143Z,5.40
2023-03-16T09:18:58.489Z,5.13
2023-03-16T09:21:45.970Z,7.22
2023-03-16T09:24:54.109Z,6.20
2023-03-16T09:27:43.360Z,7.55
2023-03-16T09:30:29.168Z,6.38
2023-03-16T09:33:14.389Z,5.18
2023-03-16T09:36:01.899Z,6.13
2023-03-16T09:38:51.019Z,6.72
2023-03-16T09:41:48.710Z,4.78
2023-03-16T09:44:40.986Z,7.95
2023-03-16T09:47:30.508Z,8.88
2023-03-16T09:50:35.147Z,5.55
2023-03-16T09:53:37.173Z,4.97
2023-03-16T09:56:38.829Z,9.02
2023-03-16T09:59:25.271Z,7.32
2023-03-16T10:02:44.891Z,8.20
2023-03-16T10:05:31.881Z,4.47
2023-03-16T10:08:24.617Z,6.88
2023-03-16T10:11:45.013Z,7.22
2023-03-16T10:14:39.394Z,4.43
2023-03-16T10:17:34.689Z,5.90
2023-03-16T10:20:23.504Z,7.30
2023-03-16T10:23:24.063Z,7.70
2023-03-16T10:26:28.544Z,7.22
2023-03-16T10:29:14.776Z,6.43
2023-03-16T10:32:12.602Z,5.03
2023-03-16T10:35:07.038Z,6.32
2023-03-16T10:37:52.971Z,6.20
2023-03-16T10:40:39.863Z,10.05
2023-03-16T10:43:25.469Z,6.13
2023-03-16T10:46:20.262Z,9.65
2023-03-16T10:49:17.297Z,3.20
2023-03-16T10:52:23.837Z,6.95
2023-03-16T10:55:21.039Z,8.98
2023-03-16T10:58:11.432Z,6.70
2023-03-16T11:01:00.171Z,5.22
2023-03-16T11:03:51.308Z,5.93
2023-03-16T11:06:36.976Z,4.63
2023-03-16T11:09:40.937Z,7.22
2023-03-16T11:12:30.449Z,4.72
2023-03-16T11:15:25.828Z,3.42
2023-03-16T11:18:36.755Z,4.72
2023-03-16T11:21:55.102Z,6.22
2023-03-16T11:25:06.898Z,5.60
2023-03-16T11:28:13.373Z,3.85
2023-03-16T11:31:10.771Z,8.25
2023-03-16T11:33:57.496Z,4.60
2023-03-16T11:37:01.239Z,6.45
2023-03-16T11:40:18.192Z,5.45
2023-03-16T11:43:16.960Z,8.07
2023-03-16T11:46:23.440Z,4.70
2023-03-16T11:49:43.285Z,7.25
2023-03-16T11:52:44.084Z,7.63
2023-03-16T11:55:35.259Z,6.10
2023-03-16T11:58:33.618Z,8.00
2023-03-16T12:01:33.247Z,6.70
2023-03-16T12:04:41.781Z,7.93
2023-03-16T12:07:39.632Z,9.32
2023-03-16T12:11:17.040Z,5.80
2023-03-16T12:14:11.418Z,4.97
2023-03-16T12:17:09.918Z,4.53
2023-03-16T12:20:05.423Z,4.25
2023-03-16T12:23:02.284Z,4.35
2023-03-16T12:25:49.357Z,8.77
2023-03-16T12:28:36.624Z,4.95
2023-03-16T12:31:47.642Z,6.88
2023-03-16T12:34:52.266Z,7.95
2023-03-16T12:37:59.848Z,5.05
2023-03-16T12:40:54.021Z,9.20
2023-03-16T12:43:46.004Z,5.53
2023-03-16T12:46:47.757Z,6.63
2023-03-16T12:49:34.874Z,5.88
2023-03-16T12:52:20.430Z,8.52
2023-03-16T12:55:36.293Z,4.13
2023-03-16T13:01:11.625Z,3.58
2023-03-16T13:04:21.293Z,4.45
2023-03-16T13:07:22.904Z,4.55
2023-03-16T13:10:14.759Z,5.93
2023-03-16T13:13:18.373Z,2.95
2023-03-16T13:16:09.242Z,7.30
2023-03-16T13:18:55.395Z,6.38
2023-03-16T13:21:42.822Z,4.47
2023-03-16T13:24:38.006Z,3.10
2023-03-16T13:27:28.481Z,3.72
2023-03-16T13:30:30.093Z,3.83
2023-03-16T13:33:36.801Z,3.38
2023-03-16T13:36:24.435Z,6.43
2023-03-16T13:39:27.460Z,4.55
2023-03-16T13:42:20.381Z,4.63
2023-03-16T13:45:23.119Z,2.80
2023-03-16T13:48:16.305Z,4.95
2023-03-16T13:51:04.437Z,3.70
2023-03-16T13:53:53.593Z,7.25
2023-03-16T13:56:43.274Z,3.65
2023-03-16T13:59:33.385Z,3.00
2023-03-16T14:02:22.733Z,3.88
2023-03-16T14:05:33.177Z,3.35
2023-03-16T14:08:21.746Z,4.50
2023-03-16T14:11:08.987Z,3.92
2023-03-16T14:13:56.945Z,3.47
2023-03-16T14:16:45.801Z,4.03
2023-03-16T14:19:42.261Z,4.28
2023-03-16T14:22:37.158Z,4.63
2023-03-16T14:25:28.266Z,3.92
2023-03-16T14:28:16.077Z,4.75
2023-03-16T14:31:10.639Z,4.63
2023-03-16T14:34:06.382Z,3.22
2023-03-16T14:36:52.342Z,4.93
2023-03-16T14:39:40.564Z,4.18
2023-03-16T14:42:30.321Z,3.95
2023-03-16T14:45:17.668Z,4.40
2023-03-16T14:48:06.275Z,4.10
2023-03-16T14:50:56.480Z,3.13
2023-03-16T14:53:44.789Z,2.40
2023-03-16T14:56:36.470Z,5.13
2023-03-16T14:59:22.504Z,4.90
2023-03-16T15:02:18.363Z,2.65
2023-03-16T15:05:04.528Z,5.60
2023-03-16T15:07:58.101Z,5.97
2023-03-16T15:10:45.007Z,6.90
2023-03-16T15:13:53.508Z,2.97
2023-03-16T15:16:39.376Z,6.63
2023-03-16T15:19:25.049Z,4.32
2023-03-16T15:22:14.272Z,6.25
2023-03-16T15:25:22.264Z,4.07
2023-03-16T15:28:20.438Z,3.40
2023-03-16T15:31:06.851Z,3.53
2023-03-16T15:33:52.526Z,4.55
2023-03-16T15:36:38.525Z,7.18
2023-03-16T15:39:25.261Z,4.88
2023-03-16T15:42:16.605Z,5.05
2023-03-16T15:45:01.892Z,4.43
2023-03-16T15:48:00.581Z,4.63
2023-03-16T15:50:52.524Z,2.65
2023-03-16T15:54:00.920Z,3.60
2023-03-16T15:56:54.379Z,4.57
2023-03-16T15:59:41.801Z,4.47
2023-03-16T16:02:32.294Z,4.78
2023-03-16T16:05:20.560Z,7.93
2023-03-16T16:08:07.434Z,5.55
2023-03-16T16:10:53.559Z,3.83
2023-03-16T16:13:44.781Z,3.38
2023-03-16T16:16:33.179Z,5.97
2023-03-16T16:19:18.883Z,3.10
2023-03-16T16:22:04.686Z,1.90
2023-03-16T16:24:50.541Z,3.50
2023-03-16T16:27:35.941Z,8.00
2023-03-16T16:30:31.820Z,3.30
2023-03-16T16:33:23.059Z,9.38
2023-03-16T16:36:17.721Z,2.60
2023-03-16T16:39:05.179Z,2.90
2023-03-16T16:41:54.686Z,4.15
2023-03-16T16:44:40.933Z,2.75
2023-03-16T16:47:26.595Z,3.50
2023-03-16T16:50:21.720Z,4.25
2023-03-16T16:53:19.566Z,4.45
2023-03-16T16:56:11.832Z,5.95
2023-03-16T16:59:00.808Z,2.92
2023-03-16T17:01:57.616Z,3.75
2023-03-16T17:04:43.217Z,3.70
2023-03-16T17:07:28.757Z,4.38
2023-03-16T17:10:16.674Z,3.30
2023-03-16T17:13:02.324Z,4.75
2023-03-16T17:15:48.445Z,6.53
2023-03-16T17:18:36.486Z,6.43
2023-03-16T17:21:42.482Z,4.53
2023-03-16T17:24:32.895Z,4.68
2023-03-16T17:27:24.760Z,7.38
2023-03-16T17:30:29.022Z,3.65
2023-03-16T17:33:18.661Z,5.80
2023-03-16T17:36:04.679Z,7.63
2023-03-16T17:38:50.611Z,6.35
2023-03-16T17:41:47.911Z,5.50
2023-03-16T17:44:37.302Z,5.88
2023-03-16T17:47:25.419Z,6.38
2023-03-16T17:50:20.408Z,5.47
2023-03-16T17:53:09.405Z,8.98
2023-03-16T17:55:57.314Z,6.13
2023-03-16T17:58:45.289Z,6.38
2023-03-16T18:01:35.972Z,6.57
2023-03-16T18:04:24.107Z,4.22
2023-03-16T18:07:14.278Z,5.50
2023-03-16T18:10:00.017Z,9.68
2023-03-16T18:12:53.489Z,3.78
2023-03-16T18:15:41.659Z,7.53
2023-03-16T18:18:29.020Z,2.50
2023-03-16T18:21:19.779Z,4.32
2023-03-16T18:24:19.756Z,6.03
2023-03-16T18:27:08.282Z,5.88
2023-03-16T18:29:54.236Z,5.68
2023-03-16T18:32:45.058Z,4.70
2023-03-16T18:35:38.458Z,4.97
2023-03-16T18:38:40.740Z,5.18
2023-03-16T18:41:33.751Z,6.82
2023-03-16T18:44:23.998Z,8.45
2023-03-16T18:47:17.376Z,6.75
2023-03-16T18:50:06.617Z,4.75
2023-03-16T18:52:52.750Z,4.95
2023-03-16T18:55:45.033Z,4.97
2023-03-16T18:58:39.403Z,4.97
2023-03-16T19:01:31.809Z,4.88
2023-03-16T19:04:29.230Z,5.15
2023-03-16T19:07:28.964Z,7.55
2023-03-16T19:10:31.943Z,5.72
2023-03-16T19:13:21.192Z,7.03
2023-03-16T19:16:15.535Z,7.45
2023-03-16T19:19:03.591Z,8.50
2023-03-16T19:21:50.795Z,5.93
2023-03-16T19:24:52.399Z,5.57
2023-03-16T19:27:42.994Z,3.20
2023-03-16T19:30:31.251Z,7.25
2023-03-16T19:33:20.824Z,5.60
2023-03-16T19:36:13.494Z,4.47
2023-03-16T19:39:02.484Z,6.25
2023-03-16T19:41:56.621Z,5.70
2023-03-16T19:44:43.634Z,6.18
2023-03-16T19:47:31.531Z,4.97
2023-03-16T19:50:24.119Z,7.85
2023-03-16T19:53:17.288Z,5.63
2023-03-16T19:56:04.002Z,5.85
2023-03-16T19:58:52.015Z,4.47
2023-03-16T20:01:37.970Z,8.95
2023-03-16T20:04:28.015Z,4.90
2023-03-16T20:07:17.155Z,6.22
2023-03-16T20:10:02.904Z,5.82
2023-03-16T20:12:51.402Z,7.28
2023-03-16T20:15:42.390Z,6.50
2023-03-16T20:18:29.515Z,5.40
2023-03-16T20:21:16.811Z,6.97
2023-03-16T20:24:04.335Z,3.97
2023-03-16T20:26:55.006Z,4.13
2023-03-16T20:29:41.282Z,7.45
2023-03-16T20:32:32.917Z,6.10
2023-03-16T20:35:25.011Z,4.15
2023-03-16T20:38:22.525Z,8.95
2023-03-16T20:41:16.421Z,6.03
2023-03-16T20:44:06.098Z,5.03
2023-03-16T20:46:54.556Z,9.57
2023-03-16T20:49:46.178Z,4.32
2023-03-16T20:52:31.980Z,5.80
2023-03-16T20:55:20.135Z,6.70
2023-03-16T20:58:34.993Z,4.57
2023-03-16T21:01:23.214Z,7.20
2023-03-16T21:04:36.238Z,7.47
2023-03-16T21:07:22.036Z,7.30
2023-03-16T21:10:07.770Z,5.65
2023-03-16T21:12:56.500Z,5.18
2023-03-16T21:15:42.200Z,7.93
2023-03-16T21:18:28.685Z,4.78
2023-03-16T21:21:16.499Z,4.40
2023-03-16T21:24:05.072Z,6.15
2023-03-16T21:26:53.084Z,6.72
2023-03-16T21:29:38.579Z,7.68
2023-03-16T21:32:26.688Z,9.73
2023-03-16T21:35:17.041Z,5.13
2023-03-16T21:38:12.749Z,6.75
2023-03-16T21:41:01.375Z,7.75
2023-03-16T21:43:47.176Z,5.57
2023-03-16T21:46:33.550Z,8.18
2023-03-16T21:49:19.738Z,7.82
2023-03-16T21:52:21.999Z,7.50
2023-03-16T21:55:23.258Z,4.75
2023-03-16T21:58:10.764Z,7.10
2023-03-16T22:00:59.208Z,4.20
2023-03-16T22:03:50.947Z,9.60
2023-03-16T22:06:36.852Z,6.80
2023-03-16T22:09:26.917Z,6.20
2023-03-16T22:12:16.369Z,7.65
2023-03-16T22:15:11.220Z,10.68
2023-03-16T22:17:56.788Z,2.80
2023-03-16T22:20:42.593Z,7.28
2023-03-16T22:23:36.660Z,4.38
2023-03-16T22:26:23.590Z,6.82
2023-03-16T22:29:18.303Z,4.07
2023-03-16T22:32:10.593Z,8.38
2023-03-16T22:34:57.265Z,6.30
2023-03-16T22:37:42.881Z,3.95
2023-03-16T22:40:31.746Z,9.07
2023-03-16T22:43:22.496Z,2.88
2023-03-16T22:46:19.534Z,8.70
2023-03-16T22:49:13.002Z,4.90
2023-03-16T22:51:58.468Z,6.82
2023-03-16T22:54:45.717Z,5.10
2023-03-16T22:57:31.639Z,6.45
2023-03-16T23:00:21.248Z,7.70
2023-03-16T23:03:16.119Z,6.97
2023-03-16T23:06:02.924Z,6.40
2023-03-16T23:08:48.533Z,8.20
2023-03-16T23:11:39.469Z,5.93
2023-03-16T23:14:29.154Z,6.50
2023-03-16T23:17:22.251Z,8.82
2023-03-16T23:20:19.301Z,6.68
2023-03-16T23:23:07.789Z,5.05
2023-03-16T23:25:53.306Z,5.07
2023-03-16T23:28:38.782Z,3.47
2023-03-16T23:31:26.330Z,4.50
2023-03-16T23:34:13.507Z,7.32
2023-03-16T23:36:58.580Z,6.30
2023-03-16T23:39:44.289Z,9.55
2023-03-16T23:42:30.087Z,6.40
2023-03-16T23:45:41.936Z,4.63
2023-03-16T23:51:34.684Z,5.20
2023-03-16T23:54:23.445Z,4.03
2023-03-16T23:57:09.107Z,4.88
2023-03-16T23:59:54.503Z,5.68
